createdAt,value
2018-11-14T00:00:44.325Z,1017.29
2018-11-14T00:01:43.980Z,1017.30
2018-11-14T00:02:44.247Z,1017.28
2018-11-14T00:03:44.668Z,1017.30
2018-11-14T00:04:43.947Z,1017.30
2018-11-14T00:05:43.940Z,1017.32
2018-11-14T00:06:44.030Z,1017.34
2018-11-14T00:07:43.914Z,1017.36
2018-11-14T00:08:43.904Z,1017.34
2018-11-14T00:09:44.267Z,1017.33
2018-11-14T00:10:43.886Z,1017.34
2018-11-14T00:11:43.870Z,1017.28
2018-11-14T00:12:43.933Z,1017.34
2018-11-14T00:13:43.861Z,1017.32
2018-11-14T00:14:43.841Z,1017.37
2018-11-14T00:15:43.863Z,1017.38
2018-11-14T00:16:44.108Z,1017.34
2018-11-14T00:17:43.807Z,1017.37
2018-11-14T00:18:43.879Z,1017.40
2018-11-14T00:19:43.786Z,1017.41
2018-11-14T00:20:43.783Z,1017.45
2018-11-14T00:21:43.798Z,1017.47
2018-11-14T00:22:43.756Z,1017.46
2018-11-14T00:23:44.049Z,1017.46
2018-11-14T00:24:44.678Z,1017.48
2018-11-14T00:25:43.722Z,1017.49
2018-11-14T00:26:43.773Z,1017.46
2018-11-14T00:27:43.752Z,1017.46
2018-11-14T00:28:43.692Z,1017.42
2018-11-14T00:29:43.683Z,1017.45
2018-11-14T00:30:44.034Z,1017.44
2018-11-14T00:31:43.668Z,1017.47
2018-11-14T00:32:43.648Z,1017.44
2018-11-14T00:33:43.645Z,1017.49
2018-11-14T00:34:43.685Z,1017.50
2018-11-14T00:35:43.646Z,1017.57
2018-11-14T00:36:43.674Z,1017.55
2018-11-14T00:37:43.870Z,1017.60
2018-11-14T00:38:43.583Z,1017.62
2018-11-14T00:39:43.575Z,1017.61
2018-11-14T00:40:43.564Z,1017.60
2018-11-14T00:41:43.551Z,1017.58
2018-11-14T00:42:43.783Z,1017.58
2018-11-14T00:43:43.529Z,1017.57
2018-11-14T00:44:43.804Z,1017.55
2018-11-14T00:45:43.507Z,1017.53
2018-11-14T00:46:43.496Z,1017.56
2018-11-14T00:47:43.485Z,1017.54
2018-11-14T00:48:43.544Z,1017.55
2018-11-14T00:49:43.465Z,1017.61
2018-11-14T00:50:43.451Z,1017.66
2018-11-14T00:51:43.725Z,1017.66
2018-11-14T00:52:43.433Z,1017.63
2018-11-14T00:53:43.422Z,1017.66
2018-11-14T00:54:43.487Z,1017.65
2018-11-14T00:55:43.400Z,1017.64
2018-11-14T00:56:43.388Z,1017.65
2018-11-14T00:57:43.384Z,1017.63
2018-11-14T00:58:43.643Z,1017.66
2018-11-14T00:59:43.359Z,1017.64
2018-11-14T01:00:43.425Z,1017.63
2018-11-14T01:01:43.428Z,1017.66
2018-11-14T01:02:43.326Z,1017.64
2018-11-14T01:03:43.313Z,1017.64
2018-11-14T01:04:43.303Z,1017.63
2018-11-14T01:05:43.595Z,1017.65
2018-11-14T01:06:43.351Z,1017.64
2018-11-14T01:07:43.271Z,1017.60
2018-11-14T01:08:43.267Z,1017.62
2018-11-14T01:09:43.250Z,1017.65
2018-11-14T01:10:43.237Z,1017.66
2018-11-14T01:11:43.228Z,1017.62
2018-11-14T01:12:43.592Z,1017.55
2018-11-14T01:13:43.212Z,1017.62
2018-11-14T01:14:43.194Z,1017.67
2018-11-14T01:15:43.188Z,1017.68
2018-11-14T01:16:43.172Z,1017.64
2018-11-14T01:17:43.164Z,1017.68
2018-11-14T01:18:43.249Z,1017.69
2018-11-14T01:19:43.435Z,1017.69
2018-11-14T01:20:43.131Z,1017.66
2018-11-14T01:21:43.133Z,1017.69
2018-11-14T01:22:43.112Z,1017.67
2018-11-14T01:23:43.143Z,1017.64
2018-11-14T01:24:43.156Z,1017.64
2018-11-14T01:25:43.080Z,1017.65
2018-11-14T01:26:43.066Z,1017.66
2018-11-14T01:27:43.061Z,1017.66
2018-11-14T01:28:43.049Z,1017.71
2018-11-14T01:29:43.032Z,1017.74
2018-11-14T01:30:43.090Z,1017.76
2018-11-14T01:31:43.011Z,1017.75
2018-11-14T01:32:43.285Z,1017.75
2018-11-14T01:33:42.987Z,1017.82
2018-11-14T01:34:42.977Z,1017.76
2018-11-14T01:35:43.046Z,1017.84
2018-11-14T01:36:43.446Z,1017.82
2018-11-14T01:37:42.943Z,1017.82
2018-11-14T01:38:42.933Z,1017.79
2018-11-14T01:39:42.922Z,1017.77
2018-11-14T01:40:42.919Z,1017.76
2018-11-14T01:41:42.905Z,1017.72
2018-11-14T01:42:42.955Z,1017.71
2018-11-14T01:43:42.878Z,1017.69
2018-11-14T01:44:43.167Z,1017.68
2018-11-14T01:45:42.858Z,1017.69
2018-11-14T01:46:42.847Z,1017.68
2018-11-14T01:47:42.837Z,1017.69
2018-11-14T01:48:42.898Z,1017.67
2018-11-14T01:49:42.812Z,1017.67
2018-11-14T01:50:42.802Z,1017.62
2018-11-14T01:51:42.792Z,1017.62
2018-11-14T01:52:42.780Z,1017.58
2018-11-14T01:53:42.768Z,1017.60
2018-11-14T01:54:43.000Z,1017.59
2018-11-14T01:55:42.748Z,1017.60
2018-11-14T01:56:42.737Z,1017.57
2018-11-14T01:57:42.728Z,1017.60
2018-11-14T01:58:42.715Z,1017.58
2018-11-14T01:59:42.709Z,1017.52
2018-11-14T02:00:42.762Z,1017.53
2018-11-14T02:01:42.682Z,1017.49
2018-11-14T02:02:42.948Z,1017.49
2018-11-14T02:03:42.660Z,1017.46
2018-11-14T02:04:42.650Z,1017.48
2018-11-14T02:05:42.638Z,1017.46
2018-11-14T02:06:42.700Z,1017.43
2018-11-14T02:07:42.618Z,1017.49
2018-11-14T02:08:42.612Z,1017.48
2018-11-14T02:09:42.874Z,1017.50
2018-11-14T02:10:42.585Z,1017.55
2018-11-14T02:11:42.575Z,1017.56
2018-11-14T02:12:42.667Z,1017.54
2018-11-14T02:13:42.551Z,1017.62
2018-11-14T02:14:42.541Z,1017.64
2018-11-14T02:15:42.530Z,1017.61
2018-11-14T02:16:42.800Z,1017.67
2018-11-14T02:17:42.508Z,1017.67
2018-11-14T02:18:42.568Z,1017.59
2018-11-14T02:19:42.488Z,1017.53
2018-11-14T02:20:42.475Z,1017.52
2018-11-14T02:21:42.465Z,1017.53
2018-11-14T02:22:42.453Z,1017.54
2018-11-14T02:23:42.739Z,1017.51
2018-11-14T02:24:42.509Z,1017.51
2018-11-14T02:25:42.421Z,1017.52
2018-11-14T02:26:42.414Z,1017.52
2018-11-14T02:27:42.399Z,1017.53
2018-11-14T02:28:42.391Z,1017.53
2018-11-14T02:29:42.378Z,1017.55
2018-11-14T02:30:42.981Z,1017.52
2018-11-14T02:31:42.356Z,1017.51
2018-11-14T02:32:42.346Z,1017.53
2018-11-14T02:33:42.334Z,1017.55
2018-11-14T02:34:42.325Z,1017.59
2018-11-14T02:35:42.315Z,1017.59
2018-11-14T02:36:42.376Z,1017.59
2018-11-14T02:37:42.617Z,1017.60
2018-11-14T02:38:42.280Z,1017.59
2018-11-14T02:39:42.312Z,1017.62
2018-11-14T02:40:42.259Z,1017.58
2018-11-14T02:41:42.248Z,1017.55
2018-11-14T02:42:42.309Z,1017.57
2018-11-14T02:43:42.231Z,1017.56
2018-11-14T02:44:42.504Z,1017.55
2018-11-14T02:45:42.212Z,1017.56
2018-11-14T02:46:42.195Z,1017.55
2018-11-14T02:47:42.186Z,1017.54
2018-11-14T02:48:42.494Z,1017.56
2018-11-14T02:49:42.161Z,1017.54
2018-11-14T02:50:42.150Z,1017.56
2018-11-14T02:51:42.446Z,1017.52
2018-11-14T02:52:42.191Z,1017.48
2018-11-14T02:53:42.119Z,1017.45
2018-11-14T02:54:43.147Z,1017.51
2018-11-14T02:55:42.101Z,1017.49
2018-11-14T02:56:42.086Z,1017.51
2018-11-14T02:57:42.645Z,1017.53
2018-11-14T02:58:42.365Z,1017.53
2018-11-14T02:59:42.055Z,1017.52
2018-11-14T03:02:19.681Z,1017.51
2018-11-14T03:03:19.509Z,1017.43
2018-11-14T03:04:19.493Z,1017.45
2018-11-14T03:05:19.482Z,1017.47
2018-11-14T03:06:19.471Z,1017.52
2018-11-14T03:07:19.464Z,1017.54
2018-11-14T03:08:20.499Z,1017.54
2018-11-14T03:09:19.441Z,1017.53
2018-11-14T03:10:19.529Z,1017.53
2018-11-14T03:11:19.443Z,1017.53
2018-11-14T03:12:19.453Z,1017.52
2018-11-14T03:13:19.398Z,1017.54
2018-11-14T03:14:19.427Z,1017.44
2018-11-14T03:15:19.650Z,1017.49
2018-11-14T03:16:19.362Z,1017.51
2018-11-14T03:17:19.354Z,1017.55
2018-11-14T03:18:19.351Z,1017.56
2018-11-14T03:19:19.337Z,1017.55
2018-11-14T03:20:19.613Z,1017.57
2018-11-14T03:21:19.328Z,1017.55
2018-11-14T03:22:19.589Z,1017.56
2018-11-14T03:23:19.292Z,1017.54
2018-11-14T03:24:19.289Z,1017.55
2018-11-14T03:25:19.270Z,1017.55
2018-11-14T03:26:19.303Z,1017.53
2018-11-14T03:27:19.252Z,1017.55
2018-11-14T03:28:19.260Z,1017.49
2018-11-14T03:29:19.555Z,1017.52
2018-11-14T03:30:19.235Z,1017.48
2018-11-14T03:31:19.211Z,1017.46
2018-11-14T03:32:19.252Z,1017.44
2018-11-14T03:33:19.187Z,1017.48
2018-11-14T03:34:19.178Z,1017.51
2018-11-14T03:35:19.169Z,1017.42
2018-11-14T03:36:19.465Z,1017.42
2018-11-14T03:37:19.142Z,1017.40
2018-11-14T03:38:19.200Z,1017.33
2018-11-14T03:39:19.123Z,1017.33
2018-11-14T03:40:19.125Z,1017.34
2018-11-14T03:41:19.108Z,1017.34
2018-11-14T03:42:19.100Z,1017.33
2018-11-14T03:43:19.408Z,1017.33
2018-11-14T03:44:19.119Z,1017.38
2018-11-14T03:45:19.058Z,1017.33
2018-11-14T03:46:19.050Z,1017.35
2018-11-14T03:47:19.038Z,1017.31
2018-11-14T03:48:19.029Z,1017.32
2018-11-14T03:49:19.017Z,1017.35
2018-11-14T03:50:19.341Z,1017.35
2018-11-14T03:51:18.993Z,1017.32
2018-11-14T03:52:18.982Z,1017.27
2018-11-14T03:53:18.970Z,1017.27
2018-11-14T03:54:18.962Z,1017.26
2018-11-14T03:55:19.535Z,1017.31
2018-11-14T03:56:19.118Z,1017.27
2018-11-14T03:57:18.925Z,1017.31
2018-11-14T03:58:20.614Z,1017.31
2018-11-14T03:59:18.897Z,1017.37
2018-11-14T04:00:18.982Z,1017.36
2018-11-14T04:01:18.886Z,1017.43
2018-11-14T04:02:18.906Z,1017.39
2018-11-14T04:03:18.855Z,1017.39
2018-11-14T04:04:18.859Z,1017.36
2018-11-14T04:05:18.888Z,1017.37
2018-11-14T04:06:18.829Z,1017.35
2018-11-14T04:07:18.818Z,1017.39
2018-11-14T04:08:18.856Z,1017.39
2018-11-14T04:09:18.842Z,1017.38
2018-11-14T04:10:18.786Z,1017.40
2018-11-14T04:11:18.778Z,1017.38
2018-11-14T04:12:18.764Z,1017.36
2018-11-14T04:13:18.754Z,1017.34
2018-11-14T04:14:19.329Z,1017.34
2018-11-14T04:15:18.726Z,1017.34
2018-11-14T04:16:18.720Z,1017.32
2018-11-14T04:17:18.715Z,1017.28
2018-11-14T04:18:18.705Z,1017.28
2018-11-14T04:19:18.691Z,1017.35
2018-11-14T04:20:18.724Z,1017.34
2018-11-14T04:21:18.954Z,1017.32
2018-11-14T04:22:18.658Z,1017.29
2018-11-14T04:23:18.639Z,1017.33
2018-11-14T04:24:18.636Z,1017.30
2018-11-14T04:25:18.621Z,1017.35
2018-11-14T04:26:18.654Z,1017.37
2018-11-14T04:27:18.604Z,1017.35
2018-11-14T04:28:18.902Z,1017.32
2018-11-14T04:29:18.580Z,1017.33
2018-11-14T04:30:18.571Z,1017.33
2018-11-14T04:31:18.556Z,1017.37
2018-11-14T04:32:18.598Z,1017.39
2018-11-14T04:33:18.535Z,1017.38
2018-11-14T04:34:18.530Z,1017.37
2018-11-14T04:35:18.824Z,1017.37
2018-11-14T04:36:18.503Z,1017.32
2018-11-14T04:37:18.498Z,1017.33
2018-11-14T04:38:18.525Z,1017.34
2018-11-14T04:39:18.472Z,1017.29
2018-11-14T04:40:18.463Z,1017.31
2018-11-14T04:41:18.471Z,1017.32
2018-11-14T04:42:18.908Z,1017.31
2018-11-14T04:43:18.436Z,1017.26
2018-11-14T04:44:18.574Z,1017.23
2018-11-14T04:45:18.407Z,1017.18
2018-11-14T04:46:18.396Z,1017.20
2018-11-14T04:47:18.392Z,1017.18
2018-11-14T04:48:18.447Z,1017.21
2018-11-14T04:49:18.660Z,1017.18
2018-11-14T04:50:18.433Z,1017.18
2018-11-14T04:51:18.348Z,1017.18
2018-11-14T04:52:18.331Z,1017.15
2018-11-14T04:53:18.321Z,1017.16
2018-11-14T04:54:18.318Z,1017.16
2018-11-14T04:55:18.299Z,1017.13
2018-11-14T04:57:33.652Z,1017.18
2018-11-14T04:58:33.312Z,1017.20
2018-11-14T04:59:33.307Z,1017.17
2018-11-14T05:00:33.292Z,1017.15
2018-11-14T05:01:33.281Z,1017.16
2018-11-14T05:02:33.302Z,1017.17
2018-11-14T05:03:33.328Z,1017.16
2018-11-14T05:04:33.250Z,1017.22
2018-11-14T05:05:33.238Z,1017.08
2018-11-14T05:06:33.232Z,1017.16
2018-11-14T05:07:33.218Z,1017.14
2018-11-14T05:08:33.209Z,1017.10
2018-11-14T05:09:33.682Z,1017.11
2018-11-14T05:10:33.186Z,1017.07
2018-11-14T05:11:33.175Z,1017.10
2018-11-14T05:12:33.168Z,1017.04
2018-11-14T05:13:33.155Z,1017.02
2018-11-14T05:14:33.145Z,1017.03
2018-11-14T05:15:33.234Z,1017.03
2018-11-14T05:16:33.416Z,1017.02
2018-11-14T05:17:33.115Z,1017.03
2018-11-14T05:18:33.109Z,1016.98
2018-11-14T05:19:33.093Z,1017.02
2018-11-14T05:20:33.085Z,1017.00
2018-11-14T05:21:33.143Z,1017.00
2018-11-14T05:22:33.069Z,1016.97
2018-11-14T05:23:33.328Z,1017.00
2018-11-14T05:24:33.093Z,1017.05
2018-11-14T05:25:33.038Z,1017.08
2018-11-14T05:26:33.019Z,1017.04
2018-11-14T05:27:33.082Z,1017.08
2018-11-14T05:28:33.004Z,1017.09
2018-11-14T05:29:32.990Z,1017.08
2018-11-14T05:30:33.254Z,1017.13
2018-11-14T05:31:32.970Z,1017.16
2018-11-14T05:32:32.957Z,1017.09
2018-11-14T05:33:33.035Z,1017.12
2018-11-14T05:34:32.939Z,1017.16
2018-11-14T05:35:32.924Z,1017.14
2018-11-14T05:36:32.919Z,1017.11
2018-11-14T05:37:33.181Z,1017.17
2018-11-14T05:38:32.893Z,1017.16
2018-11-14T05:39:32.974Z,1017.15
2018-11-14T05:40:32.869Z,1017.17
2018-11-14T05:41:32.860Z,1017.16
2018-11-14T05:42:34.194Z,1017.14
2018-11-14T05:43:32.843Z,1017.20
2018-11-14T05:44:33.250Z,1017.19
2018-11-14T05:45:32.999Z,1017.15
2018-11-14T05:46:32.806Z,1017.18
2018-11-14T05:47:32.839Z,1017.18
2018-11-14T05:48:32.851Z,1017.19
2018-11-14T05:49:32.799Z,1017.18
2018-11-14T05:50:32.835Z,1017.22
2018-11-14T05:51:35.482Z,1017.22
2018-11-14T05:52:32.745Z,1017.22
2018-11-14T05:53:32.865Z,1017.23
2018-11-14T05:54:32.725Z,1017.25
2018-11-14T05:55:32.713Z,1017.22
2018-11-14T05:56:32.712Z,1017.18
2018-11-14T05:57:32.776Z,1017.19
2018-11-14T05:58:33.092Z,1017.18
2018-11-14T05:59:32.668Z,1017.20
2018-11-14T06:00:32.657Z,1017.19
2018-11-14T06:01:32.857Z,1017.18
2018-11-14T06:02:32.693Z,1017.20
2018-11-14T06:03:32.751Z,1017.15
2018-11-14T06:04:32.629Z,1017.15
2018-11-14T06:05:32.941Z,1017.15
2018-11-14T06:06:32.594Z,1017.18
2018-11-14T06:07:32.644Z,1017.19
2018-11-14T06:08:32.573Z,1017.16
2018-11-14T06:09:32.936Z,1017.15
2018-11-14T06:10:32.553Z,1017.12
2018-11-14T06:11:32.540Z,1017.13
2018-11-14T06:12:32.958Z,1017.15
2018-11-14T06:13:32.526Z,1017.11
2018-11-14T06:14:32.509Z,1017.08
2018-11-14T06:15:32.566Z,1017.12
2018-11-14T06:16:32.487Z,1017.11
2018-11-14T06:17:32.478Z,1017.15
2018-11-14T06:18:32.466Z,1017.15
2018-11-14T06:19:33.683Z,1017.14
2018-11-14T06:20:32.446Z,1017.15
2018-11-14T06:21:32.922Z,1017.16
2018-11-14T06:22:32.424Z,1017.16
2018-11-14T06:23:32.485Z,1017.19
2018-11-14T06:24:32.447Z,1017.19
2018-11-14T06:25:32.539Z,1017.18
2018-11-14T06:26:32.933Z,1017.20
2018-11-14T06:27:32.719Z,1017.13
2018-11-14T06:28:32.514Z,1017.16
2018-11-14T06:29:32.437Z,1017.15
2018-11-14T06:30:32.409Z,1017.15
2018-11-14T06:31:32.399Z,1017.14
2018-11-14T06:32:32.385Z,1017.20
2018-11-14T06:33:32.918Z,1017.15
2018-11-14T06:34:32.351Z,1017.18
2018-11-14T06:35:32.296Z,1017.18
2018-11-14T06:36:32.277Z,1017.20
2018-11-14T06:37:32.291Z,1017.18
2018-11-14T06:38:32.300Z,1017.22
2018-11-14T06:39:32.386Z,1017.25
2018-11-14T06:40:32.632Z,1017.30
2018-11-14T06:41:32.231Z,1017.31
2018-11-14T06:42:32.213Z,1017.32
2018-11-14T06:43:32.208Z,1017.33
2018-11-14T06:44:32.196Z,1017.35
2018-11-14T06:45:32.269Z,1017.36
2018-11-14T06:46:32.170Z,1017.41
2018-11-14T06:47:32.697Z,1017.39
2018-11-14T06:48:32.152Z,1017.45
2018-11-14T06:49:32.137Z,1017.38
2018-11-14T06:50:32.128Z,1017.41
2018-11-14T06:51:32.187Z,1017.44
2018-11-14T06:52:33.123Z,1017.43
2018-11-14T06:53:32.091Z,1017.41
2018-11-14T06:54:33.067Z,1017.41
2018-11-14T06:55:32.714Z,1017.42
2018-11-14T06:56:32.715Z,1017.44
2018-11-14T06:57:32.122Z,1017.48
2018-11-14T06:58:32.055Z,1017.52
2018-11-14T06:59:32.107Z,1017.51
2018-11-14T07:00:32.022Z,1017.52
2018-11-14T07:01:32.485Z,1017.57
2018-11-14T07:02:38.334Z,1017.55
2018-11-14T07:03:33.554Z,1017.54
2018-11-14T07:04:32.002Z,1017.51
2018-11-14T07:05:32.291Z,1017.51
2018-11-14T07:06:32.395Z,1017.51
2018-11-14T07:07:32.029Z,1017.53
2018-11-14T07:08:32.296Z,1017.53
2018-11-14T07:09:32.766Z,1017.56
2018-11-14T07:10:32.016Z,1017.56
2018-11-14T07:11:32.712Z,1017.53
2018-11-14T07:12:31.897Z,1017.57
2018-11-14T07:13:31.881Z,1017.60
2018-11-14T07:14:31.889Z,1017.56
2018-11-14T07:15:31.902Z,1017.60
2018-11-14T07:16:31.850Z,1017.62
2018-11-14T07:17:32.053Z,1017.61
2018-11-14T07:18:31.829Z,1017.60
2018-11-14T07:19:31.827Z,1017.65
2018-11-14T07:20:32.700Z,1017.66
2018-11-14T07:21:32.758Z,1017.66
2018-11-14T07:22:31.788Z,1017.69
2018-11-14T07:23:31.833Z,1017.67
2018-11-14T07:24:31.775Z,1017.65
2018-11-14T07:25:31.756Z,1017.65
2018-11-14T07:26:31.754Z,1017.64
2018-11-14T07:27:33.341Z,1017.60
2018-11-14T07:28:31.724Z,1017.59
2018-11-14T07:29:31.712Z,1017.59
2018-11-14T07:30:31.701Z,1017.59
2018-11-14T07:31:31.692Z,1017.60
2018-11-14T07:32:31.704Z,1017.59
2018-11-14T07:33:32.543Z,1017.62
2018-11-14T07:34:31.659Z,1017.61
2018-11-14T07:35:31.651Z,1017.61
2018-11-14T07:36:31.638Z,1017.60
2018-11-14T07:37:31.721Z,1017.61
2018-11-14T07:38:31.618Z,1017.61
2018-11-14T07:39:32.181Z,1017.59
2018-11-14T07:40:31.600Z,1017.56
2018-11-14T07:41:31.591Z,1017.51
2018-11-14T07:42:31.574Z,1017.51
2018-11-14T07:43:31.588Z,1017.56
2018-11-14T07:44:31.556Z,1017.59
2018-11-14T07:45:32.183Z,1017.60
2018-11-14T07:46:31.533Z,1017.64
2018-11-14T07:47:31.523Z,1017.62
2018-11-14T07:48:31.512Z,1017.63
2018-11-14T07:49:31.502Z,1017.67
2018-11-14T07:50:31.489Z,1017.77
2018-11-14T07:51:32.223Z,1017.74
2018-11-14T07:52:31.763Z,1017.76
2018-11-14T07:53:31.458Z,1017.75
2018-11-14T07:54:31.497Z,1017.81
2018-11-14T07:55:31.482Z,1017.85
2018-11-14T07:56:31.567Z,1017.83
2018-11-14T07:57:31.714Z,1017.78
2018-11-14T07:58:31.466Z,1017.79
2018-11-14T07:59:31.860Z,1017.75
2018-11-14T08:00:31.470Z,1017.76
2018-11-14T08:01:31.445Z,1017.82
2018-11-14T08:02:31.421Z,1017.79
2018-11-14T08:03:31.582Z,1017.81
2018-11-14T08:04:31.355Z,1017.84
2018-11-14T08:05:31.331Z,1017.83
2018-11-14T08:06:32.671Z,1017.86
2018-11-14T08:07:31.363Z,1017.89
2018-11-14T08:08:31.389Z,1017.88
2018-11-14T08:09:31.411Z,1017.87
2018-11-14T08:10:31.278Z,1017.82
2018-11-14T08:11:31.268Z,1017.86
2018-11-14T08:12:31.255Z,1017.86
2018-11-14T08:13:31.246Z,1017.92
2018-11-14T08:14:31.235Z,1017.89
2018-11-14T08:15:31.377Z,1017.87
2018-11-14T08:16:31.225Z,1017.91
2018-11-14T08:17:31.207Z,1017.94
2018-11-14T08:18:31.277Z,1017.93
2018-11-14T08:19:31.612Z,1017.94
2018-11-14T08:20:31.171Z,1017.90
2018-11-14T08:21:31.409Z,1017.97
2018-11-14T08:22:31.151Z,1017.93
2018-11-14T08:23:31.186Z,1018.00
2018-11-14T08:24:31.129Z,1018.00
2018-11-14T08:25:31.823Z,1018.00
2018-11-14T08:26:31.383Z,1018.01
2018-11-14T08:27:31.269Z,1017.97
2018-11-14T08:28:31.096Z,1017.94
2018-11-14T08:29:31.076Z,1017.94
2018-11-14T08:30:31.277Z,1017.89
2018-11-14T08:31:31.730Z,1017.88
2018-11-14T08:32:31.043Z,1017.87
2018-11-14T08:33:31.725Z,1017.89
2018-11-14T08:34:31.024Z,1017.82
2018-11-14T08:35:31.019Z,1017.86
2018-11-14T08:36:31.799Z,1017.82
2018-11-14T08:37:31.049Z,1017.88
2018-11-14T08:38:31.067Z,1017.84
2018-11-14T08:39:31.372Z,1017.88
2018-11-14T08:40:30.989Z,1017.92
2018-11-14T08:41:31.169Z,1017.90
2018-11-14T08:42:31.149Z,1017.84
2018-11-14T08:43:31.900Z,1017.87
2018-11-14T08:44:31.007Z,1017.86
2018-11-14T08:45:31.190Z,1017.81
2018-11-14T08:46:32.320Z,1017.85
2018-11-14T08:47:31.282Z,1017.83
2018-11-14T08:48:31.053Z,1017.85
2018-11-14T08:49:31.092Z,1017.88
2018-11-14T08:50:31.379Z,1017.86
2018-11-14T08:51:31.573Z,1017.84
2018-11-14T08:52:30.963Z,1017.85
2018-11-14T08:53:32.304Z,1017.87
2018-11-14T08:54:30.811Z,1017.90
2018-11-14T08:55:30.849Z,1017.89
2018-11-14T08:56:30.800Z,1017.89
2018-11-14T08:57:30.910Z,1017.87
2018-11-14T08:58:30.774Z,1017.83
2018-11-14T08:59:30.759Z,1017.77
2018-11-14T09:00:31.121Z,1017.80
2018-11-14T09:01:30.814Z,1017.83
2018-11-14T09:02:30.851Z,1017.78
2018-11-14T09:03:30.835Z,1017.76
2018-11-14T09:04:31.699Z,1017.81
2018-11-14T09:05:30.695Z,1017.81
2018-11-14T09:06:30.801Z,1017.80
2018-11-14T09:07:31.175Z,1017.82
2018-11-14T09:08:30.664Z,1017.75
2018-11-14T09:09:30.798Z,1017.80
2018-11-14T09:10:30.645Z,1017.81
2018-11-14T09:11:30.637Z,1017.82
2018-11-14T09:12:30.700Z,1017.86
2018-11-14T09:13:30.631Z,1017.90
2018-11-14T09:14:30.944Z,1017.88
2018-11-14T09:15:30.666Z,1017.93
2018-11-14T09:16:30.590Z,1017.92
2018-11-14T09:17:30.574Z,1017.92
2018-11-14T09:18:31.321Z,1017.93
2018-11-14T09:19:30.659Z,1017.91
2018-11-14T09:20:30.562Z,1017.89
2018-11-14T09:21:31.796Z,1017.93
2018-11-14T09:22:30.589Z,1017.96
2018-11-14T09:23:30.595Z,1018.02
2018-11-14T09:24:30.623Z,1018.06
2018-11-14T09:25:30.716Z,1018.08
2018-11-14T09:26:30.554Z,1018.07
2018-11-14T09:27:30.732Z,1018.13
2018-11-14T09:28:30.617Z,1018.13
2018-11-14T09:29:30.505Z,1018.15
2018-11-14T09:30:30.439Z,1018.15
2018-11-14T09:31:30.422Z,1018.19
2018-11-14T09:32:30.448Z,1018.19
2018-11-14T09:33:30.442Z,1018.18
2018-11-14T09:34:30.447Z,1018.18
2018-11-14T09:35:30.382Z,1018.19
2018-11-14T09:36:30.571Z,1018.21
2018-11-14T09:37:30.435Z,1018.20
2018-11-14T09:38:30.363Z,1018.23
2018-11-14T09:39:30.616Z,1018.22
2018-11-14T09:40:31.658Z,1018.28
2018-11-14T09:41:30.478Z,1018.32
2018-11-14T09:42:32.161Z,1018.37
2018-11-14T09:43:30.516Z,1018.37
2018-11-14T09:44:31.433Z,1018.33
2018-11-14T09:45:31.026Z,1018.34
2018-11-14T09:46:30.795Z,1018.33
2018-11-14T09:47:30.604Z,1018.37
2018-11-14T09:48:30.327Z,1018.26
2018-11-14T09:49:30.547Z,1018.23
2018-11-14T09:50:30.481Z,1018.29
2018-11-14T09:51:30.546Z,1018.24
2018-11-14T09:52:30.208Z,1018.23
2018-11-14T09:53:30.201Z,1018.23
2018-11-14T09:54:30.751Z,1018.26
2018-11-14T09:55:30.211Z,1018.18
2018-11-14T09:56:30.296Z,1018.12
2018-11-14T09:57:30.436Z,1018.09
2018-11-14T09:58:30.792Z,1018.07
2018-11-14T09:59:30.193Z,1018.02
2018-11-14T10:00:30.364Z,1018.01
2018-11-14T10:01:30.785Z,1017.94
2018-11-14T10:02:30.318Z,1017.92
2018-11-14T10:03:30.737Z,1017.95
2018-11-14T10:04:30.766Z,1017.88
2018-11-14T10:05:30.572Z,1017.83
2018-11-14T10:06:30.228Z,1017.84
2018-11-14T10:07:31.175Z,1017.83
2018-11-14T10:08:30.709Z,1017.76
2018-11-14T10:09:30.404Z,1017.79
2018-11-14T10:10:30.145Z,1017.84
2018-11-14T10:11:30.837Z,1017.87
2018-11-14T10:12:30.135Z,1017.87
2018-11-14T10:13:30.320Z,1017.89
2018-11-14T10:14:30.098Z,1017.90
2018-11-14T10:15:30.444Z,1017.93
2018-11-14T10:16:30.286Z,1017.93
2018-11-14T10:17:30.049Z,1017.94
2018-11-14T10:18:30.523Z,1017.93
2018-11-14T10:19:30.293Z,1017.91
2018-11-14T10:20:30.697Z,1017.91
2018-11-14T10:21:31.683Z,1017.92
2018-11-14T10:22:30.690Z,1017.91
2018-11-14T10:23:29.885Z,1017.90
2018-11-14T10:24:29.873Z,1017.92
2018-11-14T10:25:30.405Z,1017.90
2018-11-14T10:26:29.984Z,1017.92
2018-11-14T10:27:30.363Z,1017.92
2018-11-14T10:28:29.971Z,1017.96
2018-11-14T10:29:30.178Z,1017.96
2018-11-14T10:30:30.332Z,1017.95
2018-11-14T10:31:30.259Z,1017.96
2018-11-14T10:32:30.653Z,1018.00
2018-11-14T10:33:30.133Z,1018.01
2018-11-14T10:34:29.870Z,1018.00
2018-11-14T10:35:29.807Z,1018.02
2018-11-14T10:36:29.828Z,1018.00
2018-11-14T10:37:29.767Z,1018.01
2018-11-14T10:38:30.354Z,1017.98
2018-11-14T10:39:30.492Z,1018.04
2018-11-14T10:40:30.890Z,1018.04
2018-11-14T10:41:29.851Z,1018.04
2018-11-14T10:42:29.978Z,1017.99
2018-11-14T10:43:29.826Z,1018.03
2018-11-14T10:44:29.945Z,1018.07
2018-11-14T10:45:30.421Z,1017.99
2018-11-14T10:46:29.708Z,1017.96
2018-11-14T10:47:29.637Z,1017.95
2018-11-14T10:48:29.761Z,1017.93
2018-11-14T10:49:29.752Z,1017.94
2018-11-14T10:50:29.784Z,1017.93
2018-11-14T10:51:30.785Z,1017.90
2018-11-14T10:52:29.603Z,1017.87
2018-11-14T10:53:29.574Z,1017.86
2018-11-14T10:54:29.595Z,1017.86
2018-11-14T10:55:29.764Z,1017.83
2018-11-14T10:56:29.699Z,1017.82
2018-11-14T10:57:30.649Z,1017.85
2018-11-14T10:58:30.116Z,1017.82
2018-11-14T10:59:29.636Z,1017.80
2018-11-14T11:00:29.571Z,1017.81
2018-11-14T11:01:29.626Z,1017.85
2018-11-14T11:02:31.397Z,1017.80
2018-11-14T11:03:30.212Z,1017.82
2018-11-14T11:04:30.573Z,1017.81
2018-11-14T11:05:29.652Z,1017.85
2018-11-14T11:06:29.425Z,1017.82
2018-11-14T11:07:30.649Z,1017.80
2018-11-14T11:08:29.527Z,1017.78
2018-11-14T11:09:29.875Z,1017.80
2018-11-14T11:10:29.404Z,1017.80
2018-11-14T11:11:29.701Z,1017.80
2018-11-14T11:12:29.549Z,1017.71
2018-11-14T11:13:29.378Z,1017.70
2018-11-14T11:14:29.342Z,1017.67
2018-11-14T11:15:29.732Z,1017.67
2018-11-14T11:16:29.826Z,1017.62
2018-11-14T11:17:29.311Z,1017.60
2018-11-14T11:18:29.296Z,1017.55
2018-11-14T11:19:29.499Z,1017.58
2018-11-14T11:20:29.328Z,1017.60
2018-11-14T11:21:29.625Z,1017.57
2018-11-14T11:22:29.266Z,1017.60
2018-11-14T11:23:29.935Z,1017.58
2018-11-14T11:24:29.293Z,1017.55
2018-11-14T11:25:29.375Z,1017.55
2018-11-14T11:26:29.387Z,1017.57
2018-11-14T11:27:29.374Z,1017.61
2018-11-14T11:28:29.789Z,1017.52
2018-11-14T11:29:29.525Z,1017.44
2018-11-14T11:30:29.682Z,1017.40
2018-11-14T11:31:29.881Z,1017.48
2018-11-14T11:32:29.189Z,1017.46
2018-11-14T11:33:29.493Z,1017.46
2018-11-14T11:34:29.366Z,1017.46
2018-11-14T11:35:29.298Z,1017.73
2018-11-14T11:36:29.168Z,1017.78
2018-11-14T11:37:29.583Z,1017.76
2018-11-14T11:38:29.213Z,1017.76
2018-11-14T11:39:29.586Z,1017.76
2018-11-14T11:40:29.064Z,1017.76
2018-11-14T11:41:29.144Z,1017.66
2018-11-14T11:42:29.234Z,1017.67
2018-11-14T11:43:30.060Z,1017.72
2018-11-14T11:44:29.770Z,1017.70
2018-11-14T11:45:29.687Z,1017.77
2018-11-14T11:46:29.047Z,1017.70
2018-11-14T11:47:29.773Z,1017.73
2018-11-14T11:48:28.987Z,1017.72
2018-11-14T11:49:29.021Z,1017.66
2018-11-14T11:50:29.003Z,1017.65
2018-11-14T11:51:30.750Z,1017.64
2018-11-14T11:52:29.050Z,1017.59
2018-11-14T11:53:29.700Z,1017.59
2018-11-14T11:54:29.219Z,1017.59
2018-11-14T11:55:29.373Z,1017.54
2018-11-14T11:56:29.934Z,1017.48
2018-11-14T11:57:31.207Z,1017.44
2018-11-14T11:58:29.351Z,1017.44
2018-11-14T11:59:29.079Z,1017.47
2018-11-14T12:00:29.282Z,1017.41
2018-11-14T12:01:28.893Z,1017.40
2018-11-14T12:02:28.929Z,1017.17
2018-11-14T12:03:29.413Z,1017.46
2018-11-14T12:04:28.874Z,1017.47
2018-11-14T12:05:29.325Z,1017.44
2018-11-14T12:06:29.169Z,1017.47
2018-11-14T12:07:28.797Z,1017.43
2018-11-14T12:08:29.472Z,1017.40